BLACK BUTTE (BLB)

Elevation: 426' · STONY CR basin · Operator: US Army Corps of Engineers

Provisional data, subject to change.
Query executed Tuesday at 13:47:24   clock

Select a sensor type for a plot of data.
Note: Reservoir Flows are daily averages.

Earlier

Date RES ELE    STORAGE    RES CHG    TOC STO    ABV TOC    OUTFLOW    INFLOW    PPT INC    TEMP MN    TEMP MX    EVP PAN   
 FEET   AF   AF   AF   AF   CFS   CFS   INCHES   DEG F   DEG F   INCHES  
07/31/2016 451.32 57143 -540 136200 -79057 242 -1 0.00 17 35 0.31
08/01/2016 451.14 56660 -483 136200 -79540 214 1 0.07 18 35 0.33
08/02/2016 450.95 56153 -- 136200 -- 238 12 0.02 18 37 0.32
08/03/2016 450.76 55649 -504 136200 -80551 226 3 0.00 22 41 0.35
08/04/2016 450.57 55149 -500 136200 -81051 225 1 0.00 17 33 0.31
08/05/2016 450.40 54703 -446 136200 -81497 210 11 0.00 13 31 0.29
08/06/2016 450.21 54209 -494 136200 -81991 226 4 0.00 18 33 0.30
08/07/2016 450.01 53691 -518 136200 -82509 241 6 0.15 15 33 0.30
08/08/2016 449.78 53100 -591 136200 -83100 289 19 0.02 18 34 0.31
08/09/2016 449.50 52387 -713 136200 -83813 321 -10 0.00 21 37 0.33
08/10/2016 449.26 51780 -607 136200 -84420 306 27 0.02 18 35 0.31
08/11/2016 449.02 51179 -601 136200 -85021 292 17 0.06 20 36 0.32
08/12/2016 448.82 50682 -497 136200 -85518 235 12 0.02 20 37 0.32
08/13/2016 448.62 50187 -495 136200 -86013 246 24 0.04 22 39 0.33
08/14/2016 448.41 49671 -516 136200 -86529 250 18 0.07 22 37 0.33
08/15/2016 448.24 49255 -416 136200 -86945 202 19 0.00 21 38 0.32
08/16/2016 448.07 48842 -413 136200 -87358 198 16 0.00 20 37 0.31
08/17/2016 447.88 48383 -459 136200 -87817 208 5 0.00 24 37 0.34
08/18/2016 447.68 47902 -481 136200 -88298 218 4 0.00 22 38 0.34
08/19/2016 447.48 47425 -477 136200 -88775 252 36 0.00 20 36 0.30
08/20/2016 447.22 46808 -617 136200 -89392 293 2 0.00 19 37 0.25
08/21/2016 446.97 46220 -588 136200 -89980 292 18 0.00 17 35 0.29
08/22/2016 446.75 45706 -514 136200 -90494 270 33 0.03 18 36 0.28
08/23/2016 446.51 45150 -556 136200 -91050 272 13 0.00 16 31 0.27
08/24/2016 446.30 44667 -483 136200 -91533 233 12 0.00 16 34 0.28
08/25/2016 446.10 44210 -457 136200 -91990 208 1 0.00 20 36 0.30
08/26/2016 445.88 43711 -499 136200 -92489 227 -2 0.00 15 33 0.29
08/27/2016 445.68 43260 -451 136200 -92940 213 6 0.00 14 32 0.27
08/28/2016 445.49 42834 -426 136200 -93366 190 -4 0.00 14 33 0.27
08/29/2016 445.29 42389 -445 136200 -93811 214 8 0.00 17 33 0.24
08/30/2016 -- -- -- -- -- -- -- -- -- -- --

Later | Latest

Warning! This data is preliminary and subject to revision.

Show BLB Map | Plot BLB Data | 1 Month BLB Data | Real-Time BLB Data | BLB Info